Time;durP1;ratioP1;P1;durP2;ratioP2;P2;SDS_P1;SDS_P2;PMS_P1;PMS_P2;Temp;Humidity;BMP_temperature;BMP_pressure;BME280_temperature;BME280_humidity;BME280_pressure;Samples;Min_cycle;Max_cycle;Signal;HPM_P1;HPM_P2
2024/01/23 00:00:46;;;;;;;23.40;15.30;;;;;;;-128.00;-1.00;-1.00;133646;1274;1004942;-77
2024/01/23 00:04:07;;;;;;;25.40;14.80;;;;;;;-128.00;-1.00;-1.00;133650;1274;1004326;-78
2024/01/23 00:07:08;;;;;;;25.40;15.40;;;;;;;-128.00;-1.00;-1.00;133629;1274;1004346;-78
2024/01/23 00:10:09;;;;;;;25.50;15.60;;;;;;;-128.00;-1.00;-1.00;133685;1274;1003737;-77
2024/01/23 00:13:10;;;;;;;20.90;13.50;;;;;;;-128.00;-1.00;-1.00;133653;1274;1004003;-78
2024/01/23 00:16:11;;;;;;;21.00;13.80;;;;;;;-128.00;-1.00;-1.00;133646;1274;1004533;-77
2024/01/23 00:19:12;;;;;;;23.80;15.00;;;;;;;-128.00;-1.00;-1.00;133659;1274;1004133;-77
2024/01/23 00:22:13;;;;;;;26.10;15.30;;;;;;;-128.00;-1.00;-1.00;133627;1274;1003857;-77
2024/01/23 00:25:15;;;;;;;22.10;14.90;;;;;;;-128.00;-1.00;-1.00;133640;1274;1004315;-77
2024/01/23 00:28:16;;;;;;;23.60;14.80;;;;;;;-128.00;-1.00;-1.00;133608;1274;1004262;-77
2024/01/23 00:31:17;;;;;;;20.80;14.10;;;;;;;-128.00;-1.00;-1.00;133621;1274;1004126;-79
2024/01/23 00:34:18;;;;;;;26.50;15.50;;;;;;;-128.00;-1.00;-1.00;133628;1274;1005223;-78
2024/01/23 00:37:19;;;;;;;22.20;14.60;;;;;;;-128.00;-1.00;-1.00;133637;1274;1003669;-78
2024/01/23 00:40:20;;;;;;;23.90;14.70;;;;;;;-128.00;-1.00;-1.00;133632;1274;1003583;-79
2024/01/23 00:43:21;;;;;;;17.60;13.60;;;;;;;-128.00;-1.00;-1.00;133648;1274;1003731;-77
2024/01/23 00:46:23;;;;;;;21.60;14.90;;;;;;;-128.00;-1.00;-1.00;133682;1274;1004980;-78
2024/01/23 00:49:24;;;;;;;21.20;14.30;;;;;;;-128.00;-1.00;-1.00;133696;1274;1004288;-78
2024/01/23 00:52:25;;;;;;;24.90;15.70;;;;;;;-128.00;-1.00;-1.00;133630;1274;1003978;-78
2024/01/23 00:55:26;;;;;;;20.80;13.80;;;;;;;-128.00;-1.00;-1.00;133671;1274;1003330;-78
2024/01/23 00:58:27;;;;;;;24.20;16.00;;;;;;;-128.00;-1.00;-1.00;133666;1274;1003813;-78
2024/01/23 01:01:28;;;;;;;22.80;15.80;;;;;;;-128.00;-1.00;-1.00;133639;1274;1004238;-77
2024/01/23 01:04:30;;;;;;;25.30;15.00;;;;;;;-128.00;-1.00;-1.00;133644;1274;1005217;-77
2024/01/23 01:07:31;;;;;;;21.70;14.40;;;;;;;-128.00;-1.00;-1.00;133812;1274;1004870;-77
2024/01/23 01:10:32;;;;;;;21.20;14.60;;;;;;;-128.00;-1.00;-1.00;133726;1274;1005551;-76
2024/01/23 01:13:33;;;;;;;23.10;16.00;;;;;;;-128.00;-1.00;-1.00;133682;1274;1003658;-77
2024/01/23 01:16:34;;;;;;;21.80;15.20;;;;;;;-128.00;-1.00;-1.00;133656;1274;1004076;-78
2024/01/23 01:19:35;;;;;;;29.00;15.70;;;;;;;-128.00;-1.00;-1.00;133679;1274;1004589;-77
2024/01/23 01:22:36;;;;;;;22.70;14.60;;;;;;;-128.00;-1.00;-1.00;133676;1274;1004086;-78
2024/01/23 01:25:39;;;;;;;23.90;16.10;;;;;;;-128.00;-1.00;-1.00;133665;1274;1004827;-77
2024/01/23 01:28:40;;;;;;;19.70;14.30;;;;;;;-128.00;-1.00;-1.00;133663;1274;1004757;-78
2024/01/23 01:31:41;;;;;;;23.70;14.20;;;;;;;-128.00;-1.00;-1.00;133697;1274;1003673;-78
2024/01/23 01:34:42;;;;;;;21.50;14.90;;;;;;;-128.00;-1.00;-1.00;133673;1274;1003385;-78
2024/01/23 01:37:43;;;;;;;20.10;13.40;;;;;;;-128.00;-1.00;-1.00;133673;1274;1003928;-78
2024/01/23 01:40:44;;;;;;;19.50;14.60;;;;;;;-128.00;-1.00;-1.00;133688;1274;1003828;-78
2024/01/23 01:43:45;;;;;;;22.10;14.60;;;;;;;-128.00;-1.00;-1.00;133710;1274;1004208;-77
2024/01/23 01:46:46;;;;;;;22.00;14.20;;;;;;;-128.00;-1.00;-1.00;133690;1274;1004608;-77
2024/01/23 01:49:47;;;;;;;19.20;13.90;;;;;;;-128.00;-1.00;-1.00;133699;1274;1004520;-78
2024/01/23 01:52:49;;;;;;;24.80;15.20;;;;;;;-128.00;-1.00;-1.00;133661;1274;1003644;-77
2024/01/23 01:55:50;;;;;;;21.60;14.90;;;;;;;-128.00;-1.00;-1.00;133710;1274;1003831;-80
2024/01/23 01:58:51;;;;;;;20.50;15.00;;;;;;;-128.00;-1.00;-1.00;133636;1274;1005235;-79
2024/01/23 02:01:52;;;;;;;21.10;14.10;;;;;;;-128.00;-1.00;-1.00;133654;1274;1004454;-77
2024/01/23 02:04:53;;;;;;;20.60;14.80;;;;;;;-128.00;-1.00;-1.00;133675;1273;1003500;-78
2024/01/23 02:07:54;;;;;;;20.00;14.40;;;;;;;-128.00;-1.00;-1.00;133684;1274;1004235;-76
2024/01/23 02:10:55;;;;;;;23.00;15.50;;;;;;;-128.00;-1.00;-1.00;133637;1274;1004767;-77
2024/01/23 02:13:56;;;;;;;22.00;15.40;;;;;;;-128.00;-1.00;-1.00;133669;1274;1003892;-78
2024/01/23 02:16:57;;;;;;;23.50;16.30;;;;;;;-128.00;-1.00;-1.00;133627;1274;1004357;-77
2024/01/23 02:19:58;;;;;;;22.00;14.60;;;;;;;-128.00;-1.00;-1.00;133650;1274;1004384;-78
2024/01/23 02:22:59;;;;;;;22.40;15.10;;;;;;;-128.00;-1.00;-1.00;133652;1274;1003715;-76
2024/01/23 02:26:00;;;;;;;23.40;15.00;;;;;;;-128.00;-1.00;-1.00;133658;1274;1004174;-77
2024/01/23 02:29:01;;;;;;;30.60;16.10;;;;;;;-128.00;-1.00;-1.00;133644;1274;1003584;-76
2024/01/23 02:32:02;;;;;;;26.10;16.70;;;;;;;-128.00;-1.00;-1.00;133673;1274;1004702;-78
2024/01/23 02:35:04;;;;;;;25.30;15.70;;;;;;;-128.00;-1.00;-1.00;133687;1274;1004114;-78
2024/01/23 02:38:05;;;;;;;24.60;15.90;;;;;;;-128.00;-1.00;-1.00;133718;1274;1004474;-79
2024/01/23 02:41:06;;;;;;;23.20;16.50;;;;;;;-128.00;-1.00;-1.00;133706;1274;1004970;-77
2024/01/23 02:44:07;;;;;;;25.40;17.50;;;;;;;-128.00;-1.00;-1.00;133692;1274;1004310;-77
2024/01/23 02:47:08;;;;;;;28.30;17.60;;;;;;;-128.00;-1.00;-1.00;133653;1274;1004042;-80
2024/01/23 02:50:10;;;;;;;26.20;17.90;;;;;;;-128.00;-1.00;-1.00;133684;1274;1004139;-78
2024/01/23 02:53:11;;;;;;;27.70;15.90;;;;;;;-128.00;-1.00;-1.00;133655;1274;1004517;-77
2024/01/23 02:56:12;;;;;;;28.90;18.70;;;;;;;-128.00;-1.00;-1.00;133672;1274;1004384;-77
2024/01/23 02:59:13;;;;;;;25.20;16.80;;;;;;;-128.00;-1.00;-1.00;133730;1274;1003888;-76
2024/01/23 03:02:14;;;;;;;26.50;16.30;;;;;;;-128.00;-1.00;-1.00;133662;1274;1004286;-77
2024/01/23 03:05:15;;;;;;;24.60;16.00;;;;;;;-128.00;-1.00;-1.00;133668;1274;1005139;-77
2024/01/23 03:08:16;;;;;;;24.00;15.50;;;;;;;-128.00;-1.00;-1.00;133720;1274;1004857;-77
2024/01/23 03:11:17;;;;;;;22.60;15.90;;;;;;;-128.00;-1.00;-1.00;133686;1274;1003839;-76
2024/01/23 03:14:19;;;;;;;25.90;17.40;;;;;;;-128.00;-1.00;-1.00;133689;1274;1004021;-78
2024/01/23 03:17:20;;;;;;;23.90;17.70;;;;;;;-128.00;-1.00;-1.00;133682;1274;1004622;-76
2024/01/23 03:20:21;;;;;;;22.50;16.90;;;;;;;-128.00;-1.00;-1.00;133672;1274;1004524;-77
2024/01/23 03:23:22;;;;;;;26.80;18.60;;;;;;;-128.00;-1.00;-1.00;133712;1274;1004006;-77
2024/01/23 03:26:24;;;;;;;23.90;16.50;;;;;;;-128.00;-1.00;-1.00;133702;1274;1005057;-76
2024/01/23 03:29:25;;;;;;;22.50;16.30;;;;;;;-128.00;-1.00;-1.00;133678;1274;1004154;-77
2024/01/23 03:32:26;;;;;;;21.40;16.70;;;;;;;-128.00;-1.00;-1.00;133727;1274;1004358;-78
2024/01/23 03:35:27;;;;;;;30.30;17.90;;;;;;;-128.00;-1.00;-1.00;133679;1274;1004532;-78
2024/01/23 03:38:28;;;;;;;27.10;17.90;;;;;;;-128.00;-1.00;-1.00;133726;1274;1003527;-77
2024/01/23 03:41:29;;;;;;;22.70;16.50;;;;;;;-128.00;-1.00;-1.00;133677;1274;1004085;-77
2024/01/23 03:44:31;;;;;;;23.80;16.20;;;;;;;-128.00;-1.00;-1.00;133727;1274;1003603;-76
2024/01/23 03:47:32;;;;;;;25.80;17.20;;;;;;;-128.00;-1.00;-1.00;133784;1274;1004581;-76
2024/01/23 03:50:33;;;;;;;26.40;17.20;;;;;;;-128.00;-1.00;-1.00;133738;1274;1004014;-76
2024/01/23 03:53:34;;;;;;;24.10;17.00;;;;;;;-128.00;-1.00;-1.00;133749;1274;1003908;-78
2024/01/23 03:56:35;;;;;;;28.00;17.70;;;;;;;-128.00;-1.00;-1.00;133686;1274;1004501;-77
2024/01/23 03:59:37;;;;;;;23.10;16.00;;;;;;;-128.00;-1.00;-1.00;133711;1274;1003574;-78
2024/01/23 04:02:38;;;;;;;24.30;17.30;;;;;;;-128.00;-1.00;-1.00;133659;1274;1003570;-78
2024/01/23 04:05:39;;;;;;;25.30;17.30;;;;;;;-128.00;-1.00;-1.00;133663;1274;1004387;-78
2024/01/23 04:08:40;;;;;;;23.80;18.50;;;;;;;-128.00;-1.00;-1.00;133621;1274;1004435;-78
2024/01/23 04:11:42;;;;;;;25.70;17.90;;;;;;;-128.00;-1.00;-1.00;133659;1274;1004671;-79
2024/01/23 04:14:43;;;;;;;24.30;17.40;;;;;;;-128.00;-1.00;-1.00;133659;1274;1004373;-77
2024/01/23 04:17:45;;;;;;;22.60;17.70;;;;;;;-128.00;-1.00;-1.00;133671;1274;1004763;-78
2024/01/23 04:20:46;;;;;;;25.00;18.60;;;;;;;-128.00;-1.00;-1.00;133650;1274;1003947;-78
2024/01/23 04:23:47;;;;;;;28.50;19.10;;;;;;;-128.00;-1.00;-1.00;133650;1274;1004511;-78
2024/01/23 04:26:48;;;;;;;28.20;18.30;;;;;;;-128.00;-1.00;-1.00;133700;1274;1004892;-78
2024/01/23 04:29:50;;;;;;;23.60;17.70;;;;;;;-128.00;-1.00;-1.00;133668;1274;1003665;-78
2024/01/23 04:32:51;;;;;;;23.90;17.40;;;;;;;-128.00;-1.00;-1.00;133653;1274;1004618;-77
2024/01/23 04:35:52;;;;;;;25.40;18.40;;;;;;;-128.00;-1.00;-1.00;133675;1274;1005094;-78
2024/01/23 04:38:53;;;;;;;26.00;18.30;;;;;;;-128.00;-1.00;-1.00;133617;1274;1003789;-78
2024/01/23 04:41:54;;;;;;;26.50;18.40;;;;;;;-128.00;-1.00;-1.00;133650;1274;1003829;-76
2024/01/23 04:44:55;;;;;;;32.50;20.10;;;;;;;-128.00;-1.00;-1.00;133653;1274;1004422;-79
2024/01/23 04:47:56;;;;;;;27.80;18.60;;;;;;;-128.00;-1.00;-1.00;133626;1274;1003795;-78
2024/01/23 04:50:57;;;;;;;28.70;19.10;;;;;;;-128.00;-1.00;-1.00;133654;1274;1004500;-78
2024/01/23 04:53:58;;;;;;;28.90;20.30;;;;;;;-128.00;-1.00;-1.00;133639;1274;1004613;-78
2024/01/23 04:56:59;;;;;;;27.80;19.10;;;;;;;-128.00;-1.00;-1.00;133608;1274;1004973;-79
2024/01/23 05:00:01;;;;;;;29.20;18.50;;;;;;;-128.00;-1.00;-1.00;133620;1273;1004755;-79
2024/01/23 05:03:02;;;;;;;29.80;20.10;;;;;;;-128.00;-1.00;-1.00;133628;1274;1003848;-78
2024/01/23 05:06:04;;;;;;;27.10;19.10;;;;;;;-128.00;-1.00;-1.00;133631;1274;1004356;-79
2024/01/23 05:09:05;;;;;;;31.60;19.60;;;;;;;-128.00;-1.00;-1.00;133633;1274;1003795;-79
2024/01/23 05:12:06;;;;;;;33.50;19.70;;;;;;;-128.00;-1.00;-1.00;133629;1274;1003678;-78
2024/01/23 05:15:08;;;;;;;28.30;20.10;;;;;;;-128.00;-1.00;-1.00;133576;1274;1003752;-79
2024/01/23 05:18:09;;;;;;;29.40;21.00;;;;;;;-128.00;-1.00;-1.00;133611;1274;1005166;-79
2024/01/23 05:21:10;;;;;;;34.80;22.60;;;;;;;-128.00;-1.00;-1.00;133640;1274;1004661;-78
2024/01/23 05:24:11;;;;;;;33.60;23.70;;;;;;;-128.00;-1.00;-1.00;133593;1274;1003957;-78
2024/01/23 05:27:12;;;;;;;39.60;25.60;;;;;;;-128.00;-1.00;-1.00;133581;1274;1004312;-78
2024/01/23 05:30:13;;;;;;;38.40;24.50;;;;;;;-128.00;-1.00;-1.00;133514;1274;1004749;-78
2024/01/23 05:33:14;;;;;;;35.40;22.20;;;;;;;-128.00;-1.00;-1.00;133614;1274;1004070;-79
2024/01/23 05:36:15;;;;;;;30.70;19.80;;;;;;;-128.00;-1.00;-1.00;133604;1274;1003349;-77
2024/01/23 05:39:16;;;;;;;30.20;20.10;;;;;;;-128.00;-1.00;-1.00;133598;1274;1003703;-77
2024/01/23 05:42:18;;;;;;;29.60;19.60;;;;;;;-128.00;-1.00;-1.00;133625;1274;1004144;-78
2024/01/23 05:45:19;;;;;;;29.60;20.00;;;;;;;-128.00;-1.00;-1.00;133594;1274;1004326;-78
2024/01/23 05:48:20;;;;;;;28.70;20.00;;;;;;;-128.00;-1.00;-1.00;133597;1274;1004405;-78
2024/01/23 05:51:21;;;;;;;31.80;20.90;;;;;;;-128.00;-1.00;-1.00;133611;1274;1004839;-78
2024/01/23 05:54:22;;;;;;;30.30;20.00;;;;;;;-128.00;-1.00;-1.00;133657;1274;1004422;-78
2024/01/23 05:57:23;;;;;;;31.20;20.30;;;;;;;-128.00;-1.00;-1.00;133546;1274;1004452;-78
2024/01/23 06:00:24;;;;;;;36.10;20.60;;;;;;;-128.00;-1.00;-1.00;133566;1274;1004764;-79
2024/01/23 06:03:25;;;;;;;27.60;19.30;;;;;;;-128.00;-1.00;-1.00;133624;1274;1003206;-80
2024/01/23 06:06:27;;;;;;;32.30;21.10;;;;;;;-128.00;-1.00;-1.00;133571;1274;1004143;-80
2024/01/23 06:09:29;;;;;;;30.10;20.30;;;;;;;-128.00;-1.00;-1.00;133642;1274;1003741;-83
2024/01/23 06:12:30;;;;;;;31.10;21.10;;;;;;;-128.00;-1.00;-1.00;133646;1274;1003666;-80
2024/01/23 06:15:31;;;;;;;31.40;21.00;;;;;;;-128.00;-1.00;-1.00;133616;1274;1004596;-81
2024/01/23 06:18:32;;;;;;;35.40;22.20;;;;;;;-128.00;-1.00;-1.00;133623;1274;1003873;-81
2024/01/23 06:21:33;;;;;;;30.90;20.90;;;;;;;-128.00;-1.00;-1.00;133753;1274;1004114;-79
2024/01/23 06:24:35;;;;;;;34.00;21.50;;;;;;;-128.00;-1.00;-1.00;133813;1274;1004918;-81
2024/01/23 06:27:36;;;;;;;35.20;22.50;;;;;;;-128.00;-1.00;-1.00;133693;1274;1003524;-80
2024/01/23 06:30:37;;;;;;;35.60;21.60;;;;;;;-128.00;-1.00;-1.00;133661;1272;1004232;-80
2024/01/23 06:33:38;;;;;;;29.30;18.80;;;;;;;-128.00;-1.00;-1.00;133642;1259;1004733;-80
2024/01/23 06:36:41;;;;;;;33.00;21.80;;;;;;;-128.00;-1.00;-1.00;133585;1274;1003909;-79
2024/01/23 06:39:42;;;;;;;33.40;21.00;;;;;;;-128.00;-1.00;-1.00;133597;1274;1004169;-77
2024/01/23 06:42:43;;;;;;;30.60;20.20;;;;;;;-128.00;-1.00;-1.00;133613;1274;1004164;-78
2024/01/23 06:45:44;;;;;;;31.30;21.60;;;;;;;-128.00;-1.00;-1.00;133637;1274;1003850;-82
2024/01/23 06:48:48;;;;;;;31.80;21.60;;;;;;;-128.00;-1.00;-1.00;133642;1274;1003927;-81
2024/01/23 06:51:49;;;;;;;35.80;22.40;;;;;;;-128.00;-1.00;-1.00;133642;1274;1003574;-82
2024/01/23 06:54:50;;;;;;;32.70;22.30;;;;;;;-128.00;-1.00;-1.00;133608;1274;1005077;-80
2024/01/23 06:57:51;;;;;;;34.30;23.00;;;;;;;-128.00;-1.00;-1.00;133607;1274;1003668;-80
2024/01/23 07:00:53;;;;;;;33.80;21.60;;;;;;;-128.00;-1.00;-1.00;133637;1274;1004648;-79
2024/01/23 07:03:54;;;;;;;38.10;22.90;;;;;;;-128.00;-1.00;-1.00;133610;1274;1003926;-76
2024/01/23 07:06:55;;;;;;;35.90;23.20;;;;;;;-128.00;-1.00;-1.00;133555;1274;1004393;-80
2024/01/23 07:09:56;;;;;;;41.00;25.20;;;;;;;-128.00;-1.00;-1.00;133652;1274;1004041;-81
2024/01/23 07:12:57;;;;;;;35.20;22.00;;;;;;;-128.00;-1.00;-1.00;133656;1274;1004548;-79
2024/01/23 07:15:58;;;;;;;37.10;22.80;;;;;;;-128.00;-1.00;-1.00;133628;1274;1004110;-79
2024/01/23 07:19:00;;;;;;;40.60;24.70;;;;;;;-128.00;-1.00;-1.00;133629;1274;1004701;-81
2024/01/23 07:22:01;;;;;;;41.00;23.10;;;;;;;-128.00;-1.00;-1.00;133612;1274;1004510;-80
2024/01/23 07:25:03;;;;;;;40.10;23.60;;;;;;;-128.00;-1.00;-1.00;133637;1274;1003950;-79
2024/01/23 07:28:04;;;;;;;35.00;21.60;;;;;;;-128.00;-1.00;-1.00;133614;1274;1004229;-81
2024/01/23 07:31:05;;;;;;;37.00;24.60;;;;;;;-128.00;-1.00;-1.00;133652;1274;1004600;-80
2024/01/23 07:34:08;;;;;;;42.20;25.30;;;;;;;-128.00;-1.00;-1.00;133634;1274;1003921;-83
2024/01/23 07:37:10;;;;;;;38.50;23.70;;;;;;;-128.00;-1.00;-1.00;133602;1274;1004556;-83
2024/01/23 07:40:11;;;;;;;37.80;23.40;;;;;;;-128.00;-1.00;-1.00;133665;1274;1004268;-80
2024/01/23 07:43:12;;;;;;;39.10;24.10;;;;;;;-128.00;-1.00;-1.00;133669;1274;1003327;-80
2024/01/23 07:46:13;;;;;;;39.80;23.70;;;;;;;-128.00;-1.00;-1.00;133651;1274;1003783;-80
2024/01/23 07:49:17;;;;;;;37.10;23.60;;;;;;;-128.00;-1.00;-1.00;133653;1274;1005297;-81
2024/01/23 07:52:19;;;;;;;35.30;22.50;;;;;;;-128.00;-1.00;-1.00;133644;1274;1004388;-80
2024/01/23 07:55:22;;;;;;;36.70;22.70;;;;;;;-128.00;-1.00;-1.00;133639;1274;1004734;-81
2024/01/23 07:58:23;;;;;;;36.10;22.90;;;;;;;-128.00;-1.00;-1.00;133658;1274;1004415;-80
2024/01/23 08:01:24;;;;;;;39.70;23.80;;;;;;;-128.00;-1.00;-1.00;133614;1274;1004261;-80
2024/01/23 08:04:26;;;;;;;35.70;22.30;;;;;;;-128.00;-1.00;-1.00;133634;1274;1004165;-82
2024/01/23 08:07:27;;;;;;;35.60;22.20;;;;;;;-128.00;-1.00;-1.00;133655;1274;1003783;-80
2024/01/23 08:10:30;;;;;;;32.20;21.00;;;;;;;-128.00;-1.00;-1.00;133365;1274;1004112;-80
2024/01/23 08:13:38;;;;;;;39.00;22.20;;;;;;;-128.00;-1.00;-1.00;133694;1274;1003847;-82
2024/01/23 08:16:44;;;;;;;33.40;21.60;;;;;;;-128.00;-1.00;-1.00;133711;1274;1003646;-83
2024/01/23 08:19:45;;;;;;;34.30;22.80;;;;;;;-128.00;-1.00;-1.00;133696;1274;1003185;-79
2024/01/23 08:22:46;;;;;;;36.00;22.20;;;;;;;-128.00;-1.00;-1.00;133580;1274;1004476;-80
2024/01/23 08:25:47;;;;;;;35.50;21.10;;;;;;;-128.00;-1.00;-1.00;133664;1274;1003935;-81
2024/01/23 08:28:49;;;;;;;31.40;21.60;;;;;;;-128.00;-1.00;-1.00;133652;1274;1004880;-82
2024/01/23 08:31:50;;;;;;;35.10;20.90;;;;;;;-128.00;-1.00;-1.00;133666;1274;1003814;-80
2024/01/23 08:34:51;;;;;;;33.30;19.90;;;;;;;-128.00;-1.00;-1.00;133644;1274;1003991;-80
2024/01/23 08:37:52;;;;;;;33.80;20.90;;;;;;;-128.00;-1.00;-1.00;133628;1274;1004454;-80
2024/01/23 08:40:53;;;;;;;31.60;19.30;;;;;;;-128.00;-1.00;-1.00;133644;1274;1004379;-81
2024/01/23 08:43:58;;;;;;;30.00;19.60;;;;;;;-128.00;-1.00;-1.00;133659;1274;1003458;-87
2024/01/23 08:46:59;;;;;;;37.20;21.10;;;;;;;-128.00;-1.00;-1.00;133638;1274;1004821;-81
2024/01/23 08:50:00;;;;;;;28.90;19.20;;;;;;;-128.00;-1.00;-1.00;133688;1274;1004645;-82
2024/01/23 08:53:01;;;;;;;32.80;20.10;;;;;;;-128.00;-1.00;-1.00;133675;1274;1003654;-81
2024/01/23 08:56:03;;;;;;;30.30;19.40;;;;;;;-128.00;-1.00;-1.00;133718;1274;1005301;-79
2024/01/23 08:59:04;;;;;;;31.40;19.20;;;;;;;-128.00;-1.00;-1.00;133701;1274;1004210;-80
2024/01/23 09:02:05;;;;;;;29.80;19.30;;;;;;;-128.00;-1.00;-1.00;133616;1274;1005098;-80
2024/01/23 09:05:06;;;;;;;28.60;18.90;;;;;;;-128.00;-1.00;-1.00;133616;1274;1003484;-81
2024/01/23 09:08:07;;;;;;;29.10;18.60;;;;;;;-128.00;-1.00;-1.00;133634;1274;1004355;-80
2024/01/23 09:11:09;;;;;;;25.60;17.10;;;;;;;-128.00;-1.00;-1.00;133622;1274;1003765;-82
2024/01/23 09:14:10;;;;;;;30.30;18.90;;;;;;;-128.00;-1.00;-1.00;133611;1274;1004903;-82
2024/01/23 09:17:11;;;;;;;29.70;19.40;;;;;;;-128.00;-1.00;-1.00;133596;1274;1003710;-80
2024/01/23 09:20:12;;;;;;;29.90;19.40;;;;;;;-128.00;-1.00;-1.00;133659;1274;1003568;-80
2024/01/23 09:23:13;;;;;;;32.50;19.30;;;;;;;-128.00;-1.00;-1.00;133602;1274;1003573;-81
2024/01/23 09:26:14;;;;;;;35.70;20.30;;;;;;;-128.00;-1.00;-1.00;133586;1274;1004437;-82
2024/01/23 09:29:16;;;;;;;31.80;20.40;;;;;;;-128.00;-1.00;-1.00;133649;1274;1003880;-82
2024/01/23 09:32:17;;;;;;;28.30;18.40;;;;;;;-128.00;-1.00;-1.00;133682;1274;1003323;-80
2024/01/23 09:35:18;;;;;;;35.80;19.70;;;;;;;-128.00;-1.00;-1.00;133626;1274;1004943;-81
2024/01/23 09:38:19;;;;;;;28.80;17.70;;;;;;;-128.00;-1.00;-1.00;133623;1274;1004630;-81
2024/01/23 09:41:27;;;;;;;26.20;18.10;;;;;;;-128.00;-1.00;-1.00;133609;1274;1004303;-82
2024/01/23 09:44:29;;;;;;;30.70;18.20;;;;;;;-128.00;-1.00;-1.00;133640;1274;1004131;-82
2024/01/23 09:47:30;;;;;;;28.50;17.70;;;;;;;-128.00;-1.00;-1.00;133624;1274;1004240;-82
2024/01/23 09:50:31;;;;;;;32.00;18.60;;;;;;;-128.00;-1.00;-1.00;133635;1274;1004099;-80
2024/01/23 09:53:32;;;;;;;37.20;20.80;;;;;;;-128.00;-1.00;-1.00;133681;1274;1004210;-82
2024/01/23 09:56:33;;;;;;;36.50;20.80;;;;;;;-128.00;-1.00;-1.00;133653;1274;1005048;-83
2024/01/23 09:59:35;;;;;;;35.10;19.90;;;;;;;-128.00;-1.00;-1.00;133676;1274;1004814;-80
2024/01/23 10:02:38;;;;;;;34.40;20.30;;;;;;;-128.00;-1.00;-1.00;133658;1274;1004295;-80
2024/01/23 10:05:39;;;;;;;31.60;18.30;;;;;;;-128.00;-1.00;-1.00;133625;1274;1004953;-79
2024/01/23 10:08:40;;;;;;;31.40;19.40;;;;;;;-128.00;-1.00;-1.00;133564;1274;1003857;-82
2024/01/23 10:11:41;;;;;;;37.10;20.70;;;;;;;-128.00;-1.00;-1.00;133593;1274;1004454;-81
2024/01/23 10:14:43;;;;;;;34.00;20.10;;;;;;;-128.00;-1.00;-1.00;133574;1274;1004126;-81
2024/01/23 10:17:44;;;;;;;30.40;17.50;;;;;;;-128.00;-1.00;-1.00;133670;1274;1004888;-83
2024/01/23 10:20:46;;;;;;;38.30;21.20;;;;;;;-128.00;-1.00;-1.00;133679;1274;1004671;-82
2024/01/23 10:23:47;;;;;;;31.70;18.90;;;;;;;-128.00;-1.00;-1.00;133689;1274;1003844;-83
2024/01/23 10:26:48;;;;;;;34.10;19.50;;;;;;;-128.00;-1.00;-1.00;133655;1274;1004176;-82
2024/01/23 10:29:50;;;;;;;29.40;16.70;;;;;;;-128.00;-1.00;-1.00;133702;1274;1004288;-82
2024/01/23 10:32:51;;;;;;;34.10;17.70;;;;;;;-128.00;-1.00;-1.00;133685;1274;1004999;-83
2024/01/23 10:35:53;;;;;;;37.70;17.80;;;;;;;-128.00;-1.00;-1.00;133651;1274;1004702;-81
2024/01/23 10:38:54;;;;;;;30.20;16.60;;;;;;;-128.00;-1.00;-1.00;133649;1274;1004005;-82
2024/01/23 10:41:56;;;;;;;33.20;17.30;;;;;;;-128.00;-1.00;-1.00;133680;1274;1003743;-82
2024/01/23 10:44:57;;;;;;;31.00;19.10;;;;;;;-128.00;-1.00;-1.00;133704;1274;1003744;-81
2024/01/23 10:48:00;;;;;;;34.50;18.60;;;;;;;-128.00;-1.00;-1.00;133698;1274;1003625;-81
2024/01/23 10:51:03;;;;;;;35.30;18.60;;;;;;;-128.00;-1.00;-1.00;133713;1274;1004162;-82
2024/01/23 10:54:04;;;;;;;32.20;17.80;;;;;;;-128.00;-1.00;-1.00;133706;1274;1004899;-81
2024/01/23 10:57:07;;;;;;;28.20;16.20;;;;;;;-128.00;-1.00;-1.00;133704;1274;1004894;-81
2024/01/23 11:00:10;;;;;;;35.10;16.30;;;;;;;-128.00;-1.00;-1.00;133683;1274;1004418;-80
2024/01/23 11:03:12;;;;;;;24.90;15.30;;;;;;;-128.00;-1.00;-1.00;133747;1274;1004188;-80
2024/01/23 11:06:13;;;;;;;30.70;17.00;;;;;;;-128.00;-1.00;-1.00;133681;1274;1004290;-80
2024/01/23 11:09:14;;;;;;;26.60;15.60;;;;;;;-128.00;-1.00;-1.00;133655;1274;1004267;-80
2024/01/23 11:12:15;;;;;;;27.20;14.70;;;;;;;-128.00;-1.00;-1.00;133666;1274;1003402;-80
2024/01/23 11:15:16;;;;;;;27.80;15.50;;;;;;;-128.00;-1.00;-1.00;133653;1274;1004173;-81
2024/01/23 11:18:20;;;;;;;31.80;16.10;;;;;;;-128.00;-1.00;-1.00;133692;1274;1004749;-80
2024/01/23 11:21:21;;;;;;;31.10;17.00;;;;;;;-128.00;-1.00;-1.00;133766;1274;1004035;-82
2024/01/23 11:24:22;;;;;;;26.10;15.80;;;;;;;-128.00;-1.00;-1.00;133734;1274;1003622;-82
2024/01/23 11:27:23;;;;;;;32.90;17.80;;;;;;;-128.00;-1.00;-1.00;133708;1274;1003800;-80
2024/01/23 11:30:27;;;;;;;26.60;14.90;;;;;;;-128.00;-1.00;-1.00;133797;1274;1003433;-82
2024/01/23 11:33:29;;;;;;;30.80;16.90;;;;;;;-128.00;-1.00;-1.00;133787;1274;1004159;-81
2024/01/23 11:36:30;;;;;;;28.60;16.30;;;;;;;-128.00;-1.00;-1.00;133754;1274;1003836;-81
2024/01/23 11:39:32;;;;;;;29.90;18.90;;;;;;;-128.00;-1.00;-1.00;133668;1274;1003469;-81
2024/01/23 11:42:33;;;;;;;28.10;16.40;;;;;;;-128.00;-1.00;-1.00;133680;1274;1004048;-82
2024/01/23 11:45:34;;;;;;;30.70;15.90;;;;;;;-128.00;-1.00;-1.00;133732;1274;1003894;-82
2024/01/23 11:48:38;;;;;;;27.40;15.80;;;;;;;-128.00;-1.00;-1.00;133770;1274;1004370;-81
2024/01/23 11:51:39;;;;;;;24.60;14.80;;;;;;;-128.00;-1.00;-1.00;133651;1274;1004009;-80
2024/01/23 11:54:40;;;;;;;24.70;14.60;;;;;;;-128.00;-1.00;-1.00;133661;1274;1004158;-80
2024/01/23 11:57:41;;;;;;;25.20;14.30;;;;;;;-128.00;-1.00;-1.00;133678;1274;1005157;-80
2024/01/23 12:00:43;;;;;;;23.70;14.70;;;;;;;-128.00;-1.00;-1.00;133678;1274;1005099;-79
2024/01/23 12:03:44;;;;;;;31.70;16.20;;;;;;;-128.00;-1.00;-1.00;133666;1274;1004306;-80
2024/01/23 12:06:45;;;;;;;27.70;13.60;;;;;;;-128.00;-1.00;-1.00;133674;1274;1004814;-82
2024/01/23 12:09:46;;;;;;;23.50;14.50;;;;;;;-128.00;-1.00;-1.00;133620;1274;1004051;-80
2024/01/23 12:12:48;;;;;;;21.00;12.40;;;;;;;-128.00;-1.00;-1.00;133637;1274;1004024;-79
2024/01/23 12:15:49;;;;;;;26.20;14.50;;;;;;;-128.00;-1.00;-1.00;133652;1274;1004078;-82
2024/01/23 12:18:54;;;;;;;23.90;14.20;;;;;;;-128.00;-1.00;-1.00;133657;1274;1004198;-82
2024/01/23 12:21:55;;;;;;;26.80;14.30;;;;;;;-128.00;-1.00;-1.00;133686;1274;1004419;-82
2024/01/23 12:24:56;;;;;;;21.10;14.00;;;;;;;-128.00;-1.00;-1.00;133684;1274;1004869;-80
2024/01/23 12:27:57;;;;;;;30.40;14.90;;;;;;;-128.00;-1.00;-1.00;133671;1274;1004241;-82
2024/01/23 12:30:58;;;;;;;21.60;13.20;;;;;;;-128.00;-1.00;-1.00;133660;1274;1004627;-82
2024/01/23 12:33:59;;;;;;;23.10;12.30;;;;;;;-128.00;-1.00;-1.00;133675;1274;1005002;-82
2024/01/23 12:37:03;;;;;;;22.00;12.70;;;;;;;-128.00;-1.00;-1.00;133626;1274;1003779;-82
2024/01/23 12:40:08;;;;;;;23.30;12.40;;;;;;;-128.00;-1.00;-1.00;133696;1274;1004037;-82
2024/01/23 12:43:10;;;;;;;22.80;13.20;;;;;;;-128.00;-1.00;-1.00;133610;1274;1003444;-83
2024/01/23 12:46:11;;;;;;;26.40;13.00;;;;;;;-128.00;-1.00;-1.00;133701;1274;1004487;-83
2024/01/23 12:49:12;;;;;;;27.60;13.60;;;;;;;-128.00;-1.00;-1.00;133711;1274;1004923;-83
2024/01/23 12:52:13;;;;;;;29.00;13.60;;;;;;;-128.00;-1.00;-1.00;133683;1274;1004676;-83
2024/01/23 12:55:14;;;;;;;28.00;13.50;;;;;;;-128.00;-1.00;-1.00;133669;1274;1003704;-81
2024/01/23 12:58:15;;;;;;;23.80;12.80;;;;;;;-128.00;-1.00;-1.00;133658;1274;1004792;-83
2024/01/23 13:01:17;;;;;;;25.10;13.30;;;;;;;-128.00;-1.00;-1.00;133675;1274;1004822;-78
2024/01/23 13:04:19;;;;;;;33.30;13.70;;;;;;;-128.00;-1.00;-1.00;133622;1274;1003504;-81
2024/01/23 13:07:20;;;;;;;25.20;13.70;;;;;;;-128.00;-1.00;-1.00;133645;1274;1004251;-80
2024/01/23 13:10:21;;;;;;;26.10;13.10;;;;;;;-128.00;-1.00;-1.00;133577;1274;1003963;-83
2024/01/23 13:13:22;;;;;;;34.30;14.60;;;;;;;-128.00;-1.00;-1.00;133510;1275;1004349;-82
2024/01/23 13:16:23;;;;;;;27.30;13.30;;;;;;;-128.00;-1.00;-1.00;133593;1274;1003691;-81
2024/01/23 13:19:25;;;;;;;25.00;13.80;;;;;;;-128.00;-1.00;-1.00;133607;1274;1003925;-82
2024/01/23 13:22:27;;;;;;;26.00;13.40;;;;;;;-128.00;-1.00;-1.00;133586;1274;1004469;-81
2024/01/23 13:25:28;;;;;;;30.60;13.50;;;;;;;-128.00;-1.00;-1.00;133611;1274;1004006;-81
2024/01/23 13:28:29;;;;;;;26.60;14.30;;;;;;;-128.00;-1.00;-1.00;133620;1274;1004743;-82
2024/01/23 13:31:34;;;;;;;35.90;15.20;;;;;;;-128.00;-1.00;-1.00;133581;1274;1004591;-80
2024/01/23 13:34:37;;;;;;;23.00;13.30;;;;;;;-128.00;-1.00;-1.00;133451;1274;1004592;-81